Marland, OK (74644)

23:02 CST le 01 Mars 2015 (GMT -0600)
Downtown | Change Station
CLOSE
Current Station
Stations météorologiques personnelles
Location: Marland, OK
Altitude: 1040 ft
Stations météo à proximité

Alt. 1040 ft 36.56 °N, 97.15 °W | Updated 2 minutes ago

Ciel dégagé
Ciel dégagé
24.2 ° F
Paraît 24 ° F
N
0.0
Vent Variable Vent de NNO
Gusts 0.0 mph

Aujourd'hui
Haut(e) -- | Bas -- ° F
--% Risque de précip.
Hier
Haut(e) -- | Bas -- ° F
Precip. -- pouce
6:59 AM 6:22 PM
Lune gibbeuse croissante, 89% visible
Pression 30.53 pouce
Visibilité 5.0 Miles terrestres
Nuages Ciel dégagé
Refroidissement éolien 24 ° F
Point de rosée 21 ° F
Humidité 89%
Précipitations 0.17 pouce
Profondeur de la couche neigeuse Non disponible.
UV 0 sur 12
Pollen 2.60 sur 12
Qualité de l'air Non disponible.
Flu Activity Non disponible.
METAR KPNC 020453Z AUTO 00000KT 5SM BR CLR M06/M07 A3049 RMK AO2 SLP337 T10561072

More Conditions Fewer Conditions

Pression 30.53 pouce
Visibilité 5.0 Miles terrestres
Nuages Ciel dégagé
Refroidissement éolien 24 ° F
Point de rosée 21 ° F
Humidité 89%
Précipitations 0.17 pouce
Profondeur de la couche neigeuse Non disponible.
UV 0 sur 12
Pollen 2.60 sur 12
Qualité de l'air Non disponible.
Flu Activity Non disponible.
METAR KPNC 020453Z AUTO 00000KT 5SM BR CLR M06/M07 A3049 RMK AO2 SLP337 T10561072

More Conditions Fewer Conditions

10-Day Weather Forecast

Almanac

Astronomie

Mar. 01, 2015 Lever Coucher
Temps réel
Crépuscule civil
Crépuscule nautique
Crépuscule astronomique
Lune
Durée de lumière visible
Longueur du jour
Tomorrow will be .
, % of the Moon is Illuminated

Extrêmes aujourd'hui

State Highs State Lows

Community

WunderPhotos

Upload Photos

1,801,728 Photos téléchargées !

WunderBlogs® & News

Nearby

Qualité de l'air

  Qualité de l'air Indice de la qualité de l'air Polluant
Not available.

Épaisseur de neige

Station Depth Altitude

Activité sismique

Ville Distance Mag. Time & Date
Minimum magnitude displayed is 2.5.

Températures des eaux côtières

Lieu Température

Stations météo à proximité